createdAt,value
2023-05-17T00:00:10.157Z,10.91
2023-05-17T00:02:37.908Z,10.85
2023-05-17T00:05:11.956Z,10.81
2023-05-17T00:07:39.107Z,10.81
2023-05-17T00:10:07.143Z,10.81
2023-05-17T00:12:34.930Z,10.77
2023-05-17T00:15:02.098Z,10.75
2023-05-17T00:17:31.600Z,10.77
2023-05-17T00:19:58.978Z,10.74
2023-05-17T00:22:26.447Z,10.67
2023-05-17T00:24:53.876Z,10.68
2023-05-17T00:27:21.308Z,10.68
2023-05-17T00:29:48.820Z,10.63
2023-05-17T00:32:16.338Z,10.56
2023-05-17T00:34:43.666Z,10.52
2023-05-17T00:37:11.226Z,10.51
2023-05-17T00:39:38.617Z,10.49
2023-05-17T00:42:06.723Z,10.45
2023-05-17T00:44:34.130Z,10.37
2023-05-17T00:47:01.573Z,10.37
2023-05-17T00:49:29.380Z,10.37
2023-05-17T00:51:57.048Z,10.37
2023-05-17T00:54:26.988Z,10.37
2023-05-17T00:56:57.393Z,10.34
2023-05-17T00:59:26.446Z,10.33
2023-05-17T01:01:55.110Z,10.31
2023-05-17T01:04:23.582Z,10.31
2023-05-17T01:06:51.091Z,10.30
2023-05-17T01:09:18.733Z,10.30
2023-05-17T01:12:30.026Z,10.21
2023-05-17T01:15:09.048Z,10.20
2023-05-17T01:17:55.066Z,10.20
2023-05-17T01:20:54.536Z,10.18
2023-05-17T01:23:56.588Z,10.10
2023-05-17T01:26:47.518Z,10.01
2023-05-17T01:29:17.459Z,9.98
2023-05-17T01:31:46.447Z,9.93
2023-05-17T01:34:14.078Z,9.94
2023-05-17T01:36:43.434Z,9.91
2023-05-17T01:39:16.683Z,9.92
2023-05-17T01:42:04.368Z,9.89
2023-05-17T01:45:03.564Z,9.84
2023-05-17T01:48:04.306Z,9.80
2023-05-17T01:50:34.996Z,9.76
2023-05-17T01:53:12.252Z,9.74
2023-05-17T01:56:07.846Z,9.71
2023-05-17T01:58:45.581Z,9.65
2023-05-17T02:01:16.294Z,9.60
2023-05-17T02:03:44.066Z,9.60
2023-05-17T02:06:12.640Z,9.58
2023-05-17T02:08:39.981Z,9.59
2023-05-17T02:11:07.643Z,9.61
2023-05-17T02:13:34.976Z,9.65
2023-05-17T02:16:03.329Z,9.66
2023-05-17T02:18:32.942Z,9.65
2023-05-17T02:21:01.694Z,9.56
2023-05-17T02:23:28.902Z,9.56
2023-05-17T02:25:57.324Z,9.58
2023-05-17T02:28:24.754Z,9.57
2023-05-17T02:30:55.014Z,9.60
2023-05-17T02:33:22.773Z,9.64
2023-05-17T02:35:50.794Z,9.66
2023-05-17T02:38:18.159Z,9.64
2023-05-17T02:40:45.862Z,9.66
2023-05-17T02:43:13.049Z,9.65
2023-05-17T02:45:40.690Z,9.58
2023-05-17T02:48:09.115Z,9.59
2023-05-17T02:50:36.597Z,9.62
2023-05-17T02:53:04.181Z,9.64
2023-05-17T02:55:33.596Z,9.58
2023-05-17T02:58:00.955Z,9.59
2023-05-17T03:00:28.526Z,9.61
2023-05-17T03:02:56.033Z,9.59
2023-05-17T03:05:23.273Z,9.59
2023-05-17T03:07:50.919Z,9.58
2023-05-17T03:10:18.357Z,9.66
2023-05-17T03:12:51.683Z,9.67
2023-05-17T03:15:19.514Z,9.69
2023-05-17T03:17:47.879Z,9.67
2023-05-17T03:20:15.271Z,9.66
2023-05-17T03:22:42.695Z,9.71
2023-05-17T03:25:10.145Z,9.74
2023-05-17T03:27:37.557Z,9.72
2023-05-17T03:30:11.627Z,9.70
2023-05-17T03:32:42.403Z,9.70
2023-05-17T03:35:10.036Z,9.73
2023-05-17T03:37:37.589Z,9.75
2023-05-17T03:40:05.743Z,9.76
2023-05-17T03:42:33.216Z,9.73
2023-05-17T03:45:01.871Z,9.75
2023-05-17T03:47:30.408Z,9.73
2023-05-17T03:49:57.776Z,9.74
2023-05-17T03:52:25.231Z,9.73
2023-05-17T03:54:52.665Z,9.72
2023-05-17T03:57:22.026Z,9.72
2023-05-17T03:59:49.628Z,9.72
2023-05-17T04:02:17.304Z,9.74
2023-05-17T04:04:51.741Z,9.77
2023-05-17T04:07:19.480Z,9.75
2023-05-17T04:09:46.924Z,9.74
2023-05-17T04:12:15.512Z,9.77
2023-05-17T04:14:42.658Z,9.75
2023-05-17T04:17:10.106Z,9.79
2023-05-17T04:19:37.647Z,9.79
2023-05-17T04:22:05.223Z,9.78
2023-05-17T04:24:32.403Z,9.77
2023-05-17T04:27:01.337Z,9.80
2023-05-17T04:29:29.933Z,9.84
2023-05-17T04:31:58.069Z,9.83
2023-05-17T04:34:25.436Z,9.79
2023-05-17T04:36:53.298Z,9.83
2023-05-17T04:39:21.332Z,9.84
2023-05-17T04:41:48.832Z,9.79
2023-05-17T04:44:16.989Z,9.76
2023-05-17T04:46:46.173Z,9.79
2023-05-17T04:49:13.475Z,9.79
2023-05-17T04:51:42.053Z,9.70
2023-05-17T04:54:09.848Z,9.75
2023-05-17T04:56:39.073Z,9.79
2023-05-17T04:59:06.109Z,9.85
2023-05-17T05:01:35.615Z,9.76
2023-05-17T05:04:07.538Z,9.74
2023-05-17T05:06:41.171Z,9.75
2023-05-17T05:09:08.859Z,9.71
2023-05-17T05:11:37.237Z,9.72
2023-05-17T05:14:16.513Z,9.69
2023-05-17T05:16:44.880Z,9.67
2023-05-17T05:19:13.832Z,9.68
2023-05-17T05:21:41.236Z,9.66
2023-05-17T05:24:09.176Z,9.66
2023-05-17T05:26:36.849Z,9.57
2023-05-17T05:29:04.438Z,9.60
2023-05-17T05:31:33.702Z,9.66
2023-05-17T05:34:01.500Z,9.61
2023-05-17T05:36:28.636Z,9.69
2023-05-17T05:38:56.064Z,9.70
2023-05-17T05:41:23.669Z,9.65
2023-05-17T05:43:53.021Z,9.58
2023-05-17T05:46:20.805Z,9.47
2023-05-17T05:48:47.962Z,9.42
2023-05-17T05:51:22.739Z,9.40
2023-05-17T05:53:51.366Z,9.26
2023-05-17T05:56:18.708Z,9.23
2023-05-17T05:58:47.006Z,9.16
2023-05-17T06:01:14.466Z,9.20
2023-05-17T06:03:41.956Z,9.20
2023-05-17T06:06:09.513Z,9.08
2023-05-17T06:08:36.806Z,9.20
2023-05-17T06:11:04.332Z,9.08
2023-05-17T06:13:31.848Z,9.11
2023-05-17T06:15:59.872Z,9.17
2023-05-17T06:18:28.274Z,9.20
2023-05-17T06:20:55.819Z,9.18
2023-05-17T06:23:23.317Z,9.08
2023-05-17T06:25:51.689Z,9.16
2023-05-17T06:28:20.020Z,9.03
2023-05-17T06:30:47.532Z,9.11
2023-05-17T06:33:15.276Z,9.08
2023-05-17T06:35:55.545Z,9.01
2023-05-17T06:38:24.239Z,9.09
2023-05-17T06:40:56.032Z,9.11
2023-05-17T06:43:23.589Z,9.09
2023-05-17T06:45:51.479Z,9.03
2023-05-17T06:48:18.849Z,9.05
2023-05-17T06:50:46.578Z,9.01
2023-05-17T06:53:14.100Z,8.98
2023-05-17T06:55:43.688Z,8.96
2023-05-17T06:58:11.190Z,8.80
2023-05-17T07:00:38.596Z,8.74
2023-05-17T07:03:06.179Z,8.78
2023-05-17T07:05:34.681Z,8.82
2023-05-17T07:08:02.091Z,8.83
2023-05-17T07:10:29.549Z,8.78
2023-05-17T07:12:58.636Z,8.72
2023-05-17T07:15:27.066Z,8.73
2023-05-17T07:17:55.425Z,8.73
2023-05-17T07:20:23.733Z,8.68
2023-05-17T07:22:52.337Z,8.73
2023-05-17T07:25:21.853Z,8.74
2023-05-17T07:27:49.266Z,8.75
2023-05-17T07:30:16.972Z,8.73
2023-05-17T07:32:46.256Z,8.64
2023-05-17T07:35:15.738Z,8.61
2023-05-17T07:37:44.122Z,8.65
2023-05-17T07:40:12.013Z,8.53
2023-05-17T07:42:39.141Z,8.56
2023-05-17T07:45:08.148Z,8.60
2023-05-17T07:47:35.554Z,8.70
2023-05-17T07:50:05.420Z,8.71
2023-05-17T07:52:32.611Z,8.75
2023-05-17T07:55:00.000Z,8.71
2023-05-17T07:57:30.163Z,8.74
2023-05-17T07:59:57.471Z,8.69
2023-05-17T08:02:24.583Z,8.79
2023-05-17T08:04:52.255Z,8.80
2023-05-17T08:07:27.482Z,8.89
2023-05-17T08:09:55.124Z,8.95
2023-05-17T08:12:22.352Z,8.91
2023-05-17T08:14:50.847Z,9.01
2023-05-17T08:17:18.294Z,9.05
2023-05-17T08:19:45.997Z,9.05
2023-05-17T08:22:15.589Z,9.09
2023-05-17T08:24:46.899Z,9.08
2023-05-17T08:27:15.323Z,9.24
2023-05-17T08:29:42.799Z,9.24
2023-05-17T08:32:10.693Z,9.16
2023-05-17T08:34:38.619Z,9.16
2023-05-17T08:37:06.256Z,9.23
2023-05-17T08:39:34.674Z,9.33
2023-05-17T08:42:02.894Z,9.24
2023-05-17T08:44:30.178Z,9.28
2023-05-17T08:47:00.796Z,9.12
2023-05-17T08:49:38.325Z,9.17
2023-05-17T08:52:10.659Z,9.20
2023-05-17T08:54:38.115Z,9.23
2023-05-17T08:57:07.683Z,9.28
2023-05-17T08:59:36.980Z,9.39
2023-05-17T09:02:06.780Z,9.34
2023-05-17T09:04:34.094Z,9.24
2023-05-17T09:07:01.297Z,9.19
2023-05-17T09:09:29.020Z,9.20
2023-05-17T09:11:56.843Z,9.04
2023-05-17T09:14:24.033Z,9.05
2023-05-17T09:16:58.194Z,8.89
2023-05-17T09:19:25.684Z,9.00
2023-05-17T09:21:54.908Z,9.02
2023-05-17T09:24:36.086Z,9.06
2023-05-17T09:27:04.715Z,9.14
2023-05-17T09:29:33.249Z,9.17
2023-05-17T09:32:19.151Z,9.16
2023-05-17T09:34:47.380Z,9.22
2023-05-17T09:37:19.799Z,9.24
2023-05-17T09:39:48.011Z,9.26
2023-05-17T09:42:17.220Z,9.33
2023-05-17T09:44:57.978Z,9.30
2023-05-17T09:47:30.386Z,9.22
2023-05-17T09:50:03.570Z,9.22
2023-05-17T09:52:32.344Z,9.23
2023-05-17T09:55:01.445Z,9.32
2023-05-17T09:57:37.280Z,9.28
2023-05-17T10:00:10.119Z,9.40
2023-05-17T10:02:38.388Z,9.47
2023-05-17T10:05:09.517Z,9.41
2023-05-17T10:07:39.549Z,9.38
2023-05-17T10:10:08.650Z,9.36
2023-05-17T10:12:39.560Z,9.33
2023-05-17T10:15:08.127Z,9.35
2023-05-17T10:17:39.574Z,9.43
2023-05-17T10:20:09.205Z,9.46
2023-05-17T10:22:38.114Z,9.46
2023-05-17T10:25:06.217Z,9.42
2023-05-17T10:27:35.591Z,9.46
2023-05-17T10:30:03.381Z,9.40
2023-05-17T10:32:31.398Z,9.45
2023-05-17T10:35:10.312Z,9.42
2023-05-17T10:37:40.772Z,9.54
2023-05-17T10:40:13.975Z,9.49
2023-05-17T10:42:45.954Z,9.46
2023-05-17T10:45:13.982Z,9.50
2023-05-17T10:47:47.104Z,9.52
2023-05-17T10:50:15.483Z,9.55
2023-05-17T10:52:50.915Z,9.64
2023-05-17T10:55:23.547Z,9.64
2023-05-17T10:58:17.329Z,9.75
2023-05-17T11:00:51.252Z,9.67
2023-05-17T11:03:26.972Z,9.56
2023-05-17T11:06:24.540Z,9.58
2023-05-17T11:09:14.086Z,9.48
2023-05-17T11:12:06.463Z,9.51
2023-05-17T11:14:45.573Z,9.45
2023-05-17T11:17:20.238Z,9.50
2023-05-17T11:19:59.434Z,9.55
2023-05-17T11:22:37.195Z,9.51
2023-05-17T11:25:08.879Z,9.48
2023-05-17T11:27:47.578Z,9.50
2023-05-17T11:30:20.052Z,9.54
2023-05-17T11:32:52.591Z,9.53
2023-05-17T11:35:25.096Z,9.60
2023-05-17T11:37:54.718Z,9.72
2023-05-17T11:40:28.682Z,9.80
2023-05-17T11:43:21.404Z,9.76
2023-05-17T11:45:57.862Z,9.77
2023-05-17T11:48:27.001Z,9.67
2023-05-17T11:50:56.972Z,9.76
2023-05-17T11:53:27.504Z,9.84
2023-05-17T11:55:56.403Z,9.97
2023-05-17T11:58:27.328Z,9.96
2023-05-17T12:00:56.948Z,9.95
2023-05-17T12:03:25.804Z,9.96
2023-05-17T12:06:04.975Z,9.90
2023-05-17T12:08:37.162Z,9.93
2023-05-17T12:11:06.537Z,9.89
2023-05-17T12:13:35.979Z,9.99
2023-05-17T12:16:08.642Z,9.97
2023-05-17T12:18:38.249Z,10.06
2023-05-17T12:21:06.478Z,10.16
2023-05-17T12:23:35.780Z,10.10
2023-05-17T12:26:17.745Z,10.14
2023-05-17T12:28:46.480Z,10.18
2023-05-17T12:31:22.924Z,10.16
2023-05-17T12:33:51.323Z,10.13
2023-05-17T12:36:25.906Z,10.19
2023-05-17T12:38:56.484Z,10.22
2023-05-17T12:41:28.875Z,10.18
2023-05-17T12:44:06.143Z,10.25
2023-05-17T12:46:34.357Z,10.15
2023-05-17T12:49:09.925Z,10.13
2023-05-17T12:51:45.219Z,10.09
2023-05-17T12:54:26.764Z,10.24
2023-05-17T12:56:54.402Z,10.27
2023-05-17T12:59:22.121Z,10.37
2023-05-17T13:01:51.528Z,10.23
2023-05-17T13:04:34.414Z,10.14
2023-05-17T13:07:04.755Z,10.18
2023-05-17T13:09:33.556Z,10.29
2023-05-17T13:12:03.044Z,10.12
2023-05-17T13:14:45.274Z,10.20
2023-05-17T13:17:37.249Z,10.38
2023-05-17T13:20:07.138Z,10.36
2023-05-17T13:22:36.421Z,10.35
2023-05-17T13:25:04.365Z,10.47
2023-05-17T13:27:33.756Z,10.46
2023-05-17T13:30:01.362Z,10.54
2023-05-17T13:32:28.755Z,10.49
2023-05-17T13:34:57.042Z,10.51
2023-05-17T13:37:24.085Z,10.66
2023-05-17T13:39:54.879Z,10.73
2023-05-17T13:42:22.833Z,10.81
2023-05-17T13:44:50.372Z,10.88
2023-05-17T13:47:18.028Z,10.87
2023-05-17T13:49:47.247Z,10.94
2023-05-17T13:52:15.560Z,10.99
2023-05-17T13:54:50.195Z,11.12
2023-05-17T13:57:18.794Z,11.11
2023-05-17T13:59:50.754Z,11.15
2023-05-17T14:02:17.793Z,11.14
2023-05-17T14:04:45.274Z,11.12
2023-05-17T14:07:12.963Z,11.03
2023-05-17T14:09:40.217Z,11.11
2023-05-17T14:12:08.292Z,11.14
2023-05-17T14:14:36.589Z,11.08
2023-05-17T14:17:04.275Z,11.05
2023-05-17T14:19:32.653Z,11.12
2023-05-17T14:21:59.898Z,11.16
2023-05-17T14:24:27.465Z,11.10
2023-05-17T14:26:54.919Z,11.15
2023-05-17T14:29:22.371Z,11.22
2023-05-17T14:31:51.004Z,11.32
2023-05-17T14:34:18.386Z,11.35
2023-05-17T14:36:46.757Z,11.30
2023-05-17T14:39:14.434Z,11.30
2023-05-17T14:41:45.888Z,11.36
2023-05-17T14:44:13.968Z,11.41
2023-05-17T14:46:41.518Z,11.42
2023-05-17T14:49:09.285Z,11.57
2023-05-17T14:51:36.795Z,11.50
2023-05-17T14:54:04.107Z,11.53
2023-05-17T14:56:32.481Z,11.66
2023-05-17T14:59:00.393Z,11.65
2023-05-17T15:01:28.390Z,11.73
2023-05-17T15:03:57.245Z,11.73
2023-05-17T15:06:27.547Z,11.78
2023-05-17T15:08:55.247Z,11.79
2023-05-17T15:11:24.598Z,11.84
2023-05-17T15:13:51.898Z,11.85
2023-05-17T15:16:19.714Z,11.93
2023-05-17T15:18:48.691Z,11.96
2023-05-17T15:21:17.996Z,11.95
2023-05-17T15:23:46.420Z,11.90
2023-05-17T15:26:13.909Z,11.88
2023-05-17T15:28:43.356Z,11.91
2023-05-17T15:31:11.899Z,11.87
2023-05-17T15:33:39.859Z,11.79
2023-05-17T15:36:07.526Z,11.78
2023-05-17T15:38:34.922Z,11.77
2023-05-17T15:41:05.272Z,11.79
2023-05-17T15:43:35.223Z,11.78
2023-05-17T15:46:03.547Z,11.78
2023-05-17T15:48:31.135Z,11.80
2023-05-17T15:50:59.097Z,11.79
2023-05-17T15:53:33.870Z,11.77
2023-05-17T15:56:02.708Z,11.75
2023-05-17T15:58:33.724Z,11.75
2023-05-17T16:01:05.433Z,11.73
2023-05-17T16:03:33.662Z,11.76
2023-05-17T16:06:03.266Z,11.80
2023-05-17T16:08:31.040Z,11.85
2023-05-17T16:11:00.340Z,11.88
2023-05-17T16:13:29.583Z,11.92
2023-05-17T16:15:58.385Z,11.91
2023-05-17T16:18:27.011Z,11.92
2023-05-17T16:21:03.698Z,11.96
2023-05-17T16:23:31.776Z,12.02
2023-05-17T16:26:00.364Z,11.99
2023-05-17T16:28:28.857Z,11.95
2023-05-17T16:30:57.260Z,11.98
2023-05-17T16:33:24.838Z,12.00
2023-05-17T16:35:52.342Z,12.03
2023-05-17T16:38:19.800Z,12.04
2023-05-17T16:40:49.233Z,12.03
2023-05-17T16:43:17.809Z,12.02
2023-05-17T16:45:46.730Z,11.97
2023-05-17T16:48:15.957Z,11.94
2023-05-17T16:50:44.415Z,11.93
2023-05-17T16:53:12.660Z,11.84
2023-05-17T16:55:39.867Z,11.79
2023-05-17T16:58:07.658Z,11.74
2023-05-17T17:00:35.409Z,11.72
2023-05-17T17:03:02.638Z,11.67
2023-05-17T17:05:30.174Z,11.63
2023-05-17T17:08:03.560Z,11.52
2023-05-17T17:10:31.697Z,11.53
2023-05-17T17:13:05.319Z,11.53
2023-05-17T17:15:32.812Z,11.53
2023-05-17T17:18:01.270Z,11.48
2023-05-17T17:20:29.127Z,11.43
2023-05-17T17:22:58.785Z,11.42
2023-05-17T17:25:26.437Z,11.41
2023-05-17T17:27:55.123Z,11.38
2023-05-17T17:30:22.833Z,11.37
2023-05-17T17:32:50.286Z,11.32
2023-05-17T17:35:17.633Z,11.36
2023-05-17T17:37:45.100Z,11.33
2023-05-17T17:40:13.311Z,11.35
2023-05-17T17:42:42.571Z,11.26
2023-05-17T17:45:10.498Z,11.24
2023-05-17T17:47:37.963Z,11.23
2023-05-17T17:50:05.883Z,11.21
2023-05-17T17:52:34.431Z,11.20
2023-05-17T17:55:02.021Z,11.17
2023-05-17T17:57:32.271Z,11.17
2023-05-17T18:00:00.319Z,11.13
2023-05-17T18:02:27.583Z,11.07
2023-05-17T18:04:55.042Z,11.05
2023-05-17T18:07:22.270Z,10.99
2023-05-17T18:09:49.855Z,11.02
2023-05-17T18:12:17.179Z,10.99
2023-05-17T18:14:44.763Z,10.99
2023-05-17T18:17:12.201Z,10.98
2023-05-17T18:19:39.581Z,10.93
2023-05-17T18:22:07.067Z,10.92
2023-05-17T18:24:35.537Z,10.81
2023-05-17T18:27:04.091Z,10.75
2023-05-17T18:29:37.950Z,10.76
2023-05-17T18:32:07.038Z,10.68
2023-05-17T18:34:36.580Z,10.62
2023-05-17T18:37:05.347Z,10.59
2023-05-17T18:39:35.689Z,10.34
2023-05-17T18:42:03.320Z,10.34
2023-05-17T18:44:31.620Z,10.32
2023-05-17T18:46:59.102Z,10.16
2023-05-17T18:49:28.040Z,10.14
2023-05-17T18:51:56.659Z,9.90
2023-05-17T18:54:25.962Z,9.78
2023-05-17T18:56:53.780Z,9.64
2023-05-17T18:59:24.558Z,9.53
2023-05-17T19:01:52.380Z,9.56
2023-05-17T19:04:20.239Z,9.49
2023-05-17T19:06:48.382Z,9.49
2023-05-17T19:09:16.482Z,9.65
2023-05-17T19:11:43.894Z,9.88
2023-05-17T19:14:12.216Z,9.98
2023-05-17T19:16:42.450Z,9.97
2023-05-17T19:19:16.829Z,9.92
2023-05-17T19:21:46.392Z,10.08
2023-05-17T19:24:13.869Z,10.15
2023-05-17T19:26:41.900Z,10.15
2023-05-17T19:29:09.912Z,10.09
2023-05-17T19:31:38.801Z,10.08
2023-05-17T19:34:06.292Z,9.95
2023-05-17T19:36:33.992Z,9.82
2023-05-17T19:39:08.867Z,9.69
2023-05-17T19:41:37.467Z,9.73
2023-05-17T19:44:07.445Z,9.77
2023-05-17T19:46:35.155Z,9.81
2023-05-17T19:49:03.582Z,9.81
2023-05-17T19:51:32.208Z,9.88
2023-05-17T19:54:01.208Z,9.87
2023-05-17T19:56:30.447Z,9.81
2023-05-17T19:58:58.171Z,9.83
2023-05-17T20:01:27.439Z,9.83
2023-05-17T20:03:55.333Z,9.76
2023-05-17T20:06:22.703Z,9.66
2023-05-17T20:08:50.388Z,9.70
2023-05-17T20:11:24.254Z,9.77
2023-05-17T20:13:52.216Z,9.79
2023-05-17T20:16:19.939Z,9.82
2023-05-17T20:18:48.688Z,9.85
2023-05-17T20:21:24.288Z,9.89
2023-05-17T20:23:57.259Z,9.82
2023-05-17T20:26:27.585Z,9.87
2023-05-17T20:29:01.475Z,9.90
2023-05-17T20:31:29.138Z,9.93
2023-05-17T20:33:56.840Z,9.90
2023-05-17T20:36:24.790Z,9.83
2023-05-17T20:38:53.156Z,9.83
2023-05-17T20:41:21.001Z,9.77
2023-05-17T20:43:50.246Z,9.78
2023-05-17T20:46:24.413Z,9.84
2023-05-17T20:48:54.017Z,9.94
2023-05-17T20:51:22.715Z,10.00
2023-05-17T20:53:50.946Z,9.95
2023-05-17T20:56:19.668Z,10.04
2023-05-17T20:58:48.281Z,9.85
2023-05-17T21:01:16.020Z,9.86
2023-05-17T21:03:43.704Z,9.60
2023-05-17T21:06:15.043Z,9.46
2023-05-17T21:08:43.168Z,9.29
2023-05-17T21:11:10.443Z,9.14
2023-05-17T21:13:37.833Z,9.17
2023-05-17T21:16:11.414Z,9.11
2023-05-17T21:18:41.412Z,9.12
2023-05-17T21:21:08.848Z,9.20
2023-05-17T21:23:36.537Z,9.14
2023-05-17T21:26:03.862Z,9.00
2023-05-17T21:28:31.263Z,8.87
2023-05-17T21:30:58.770Z,8.74
2023-05-17T21:33:26.163Z,8.73
2023-05-17T21:35:53.734Z,8.68
2023-05-17T21:38:22.057Z,8.69
2023-05-17T21:40:49.503Z,8.71
2023-05-17T21:43:17.028Z,8.90
2023-05-17T21:45:45.464Z,9.01
2023-05-17T21:48:13.113Z,9.13
2023-05-17T21:50:40.311Z,9.18
2023-05-17T21:53:08.134Z,9.22
2023-05-17T21:55:36.983Z,9.20
2023-05-17T21:58:20.855Z,9.21
2023-05-17T22:00:50.174Z,9.25
2023-05-17T22:03:17.501Z,9.29
2023-05-17T22:05:45.092Z,9.29
2023-05-17T22:08:12.533Z,9.23
2023-05-17T22:10:46.961Z,9.25
2023-05-17T22:13:18.577Z,9.37
2023-05-17T22:15:46.371Z,9.47
2023-05-17T22:18:14.661Z,9.54
2023-05-17T22:20:42.239Z,9.57
2023-05-17T22:23:10.530Z,9.51
2023-05-17T22:25:51.532Z,9.50
2023-05-17T22:28:18.796Z,9.56
2023-05-17T22:30:46.840Z,9.57
2023-05-17T22:33:16.665Z,9.55
2023-05-17T22:35:44.218Z,9.50
2023-05-17T22:38:11.745Z,9.48
2023-05-17T22:40:40.058Z,9.43
2023-05-17T22:43:09.118Z,9.32
2023-05-17T22:45:36.936Z,9.33
2023-05-17T22:48:07.476Z,9.34
2023-05-17T22:50:36.567Z,9.35
2023-05-17T22:53:03.884Z,9.38
2023-05-17T22:55:31.711Z,9.39
2023-05-17T22:58:01.327Z,9.46
2023-05-17T23:00:34.898Z,9.44
2023-05-17T23:03:02.033Z,9.43
2023-05-17T23:05:29.440Z,9.35
2023-05-17T23:08:01.359Z,9.30
2023-05-17T23:10:34.932Z,9.38
2023-05-17T23:13:02.427Z,9.35
2023-05-17T23:15:34.627Z,9.37
2023-05-17T23:18:03.461Z,9.32
2023-05-17T23:20:31.492Z,9.33
2023-05-17T23:22:59.883Z,9.34
2023-05-17T23:25:29.598Z,9.30
2023-05-17T23:28:00.105Z,9.28
2023-05-17T23:30:28.204Z,9.21
2023-05-17T23:32:55.507Z,9.15
2023-05-17T23:35:24.218Z,9.11
2023-05-17T23:37:52.023Z,9.16
2023-05-17T23:40:19.783Z,9.06
2023-05-17T23:42:47.266Z,9.10
2023-05-17T23:45:15.888Z,9.20
2023-05-17T23:47:43.301Z,9.16
2023-05-17T23:50:11.060Z,9.14
2023-05-17T23:52:39.434Z,9.18
2023-05-17T23:55:07.964Z,9.20
2023-05-17T23:57:35.866Z,9.08
